createdAt,value
2018-12-19T00:00:37.892Z,90.95
2018-12-19T00:03:06.153Z,90.64
2018-12-19T00:05:34.409Z,90.69
2018-12-19T00:08:02.543Z,90.87
2018-12-19T00:10:30.734Z,90.40
2018-12-19T00:12:58.890Z,90.68
2018-12-19T00:15:27.043Z,90.85
2018-12-19T00:17:55.206Z,91.04
2018-12-19T00:20:23.399Z,90.84
2018-12-19T00:22:51.589Z,90.68
2018-12-19T00:25:19.891Z,90.94
2018-12-19T00:27:48.108Z,91.15
2018-12-19T00:30:16.446Z,91.33
2018-12-19T00:32:44.630Z,91.16
2018-12-19T00:35:12.820Z,91.19
2018-12-19T00:37:42.034Z,91.32
2018-12-19T00:40:10.360Z,91.42
2018-12-19T00:42:38.629Z,91.30
2018-12-19T00:45:13.454Z,91.11
2018-12-19T00:47:41.742Z,90.96
2018-12-19T00:50:10.017Z,91.00
2018-12-19T00:52:38.177Z,91.71
2018-12-19T00:55:06.446Z,91.12
2018-12-19T00:57:34.662Z,91.31
2018-12-19T01:00:03.115Z,91.28
2018-12-19T01:02:31.396Z,91.24
2018-12-19T01:04:59.587Z,91.52
2018-12-19T01:07:27.792Z,91.30
2018-12-19T01:09:55.964Z,91.18
2018-12-19T01:12:24.175Z,91.24
2018-12-19T01:14:52.400Z,91.31
2018-12-19T01:17:20.543Z,91.47
2018-12-19T01:19:48.695Z,91.33
2018-12-19T01:22:17.056Z,91.36
2018-12-19T01:24:45.886Z,91.37
2018-12-19T01:27:14.037Z,91.41
2018-12-19T01:29:42.288Z,91.39
2018-12-19T01:32:10.452Z,91.29
2018-12-19T01:34:38.626Z,91.11
2018-12-19T01:37:06.849Z,91.11
2018-12-19T01:39:35.017Z,91.24
2018-12-19T01:42:03.452Z,91.07
2018-12-19T01:44:31.600Z,90.87
2018-12-19T01:46:59.766Z,91.02
2018-12-19T01:49:27.939Z,90.74
2018-12-19T01:52:02.670Z,90.95
2018-12-19T01:54:30.879Z,90.70
2018-12-19T01:56:59.377Z,91.12
2018-12-19T01:59:36.534Z,90.67
2018-12-19T02:02:04.903Z,90.88
2018-12-19T02:04:33.071Z,90.59
2018-12-19T02:07:01.789Z,90.74
2018-12-19T02:09:30.651Z,90.55
2018-12-19T02:11:58.960Z,90.59
2018-12-19T02:14:27.100Z,90.78
2018-12-19T02:16:55.273Z,90.62
2018-12-19T02:19:24.230Z,90.87
2018-12-19T02:21:52.376Z,90.95
2018-12-19T02:24:20.717Z,90.70
2018-12-19T02:26:48.954Z,90.58
2018-12-19T02:29:17.202Z,90.56
2018-12-19T02:31:45.380Z,90.40
2018-12-19T02:34:13.920Z,90.61
2018-12-19T02:36:42.245Z,90.52
2018-12-19T02:39:10.383Z,90.08
2018-12-19T02:41:38.516Z,90.14
2018-12-19T02:44:06.805Z,90.33
2018-12-19T02:46:35.028Z,90.25
2018-12-19T02:49:03.581Z,90.67
2018-12-19T02:51:32.231Z,90.31
2018-12-19T02:54:00.588Z,90.08
2018-12-19T02:56:28.971Z,90.10
2018-12-19T02:58:58.239Z,90.06
2018-12-19T03:01:26.728Z,90.17
2018-12-19T03:03:54.911Z,90.01
2018-12-19T03:06:23.072Z,90.44
2018-12-19T03:08:51.271Z,89.91
2018-12-19T03:11:19.572Z,89.93
2018-12-19T03:13:53.075Z,90.15
2018-12-19T03:16:22.335Z,89.80
2018-12-19T03:18:50.609Z,90.21
2018-12-19T03:21:19.243Z,89.68
2018-12-19T03:23:47.986Z,89.79
2018-12-19T03:26:17.238Z,89.85
2018-12-19T03:28:45.511Z,89.93
2018-12-19T03:31:13.754Z,89.78
2018-12-19T03:33:41.892Z,90.04
2018-12-19T03:36:10.135Z,90.20
2018-12-19T03:38:38.402Z,89.85
2018-12-19T03:41:06.623Z,90.13
2018-12-19T03:43:34.852Z,90.00
2018-12-19T03:46:03.101Z,89.71
2018-12-19T03:48:37.142Z,89.67
2018-12-19T03:51:05.555Z,89.86
2018-12-19T03:53:33.724Z,89.53
2018-12-19T03:56:01.964Z,89.83
2018-12-19T03:58:30.172Z,90.19
2018-12-19T04:00:58.354Z,89.66
2018-12-19T04:03:26.549Z,89.80
2018-12-19T04:05:54.749Z,89.65
2018-12-19T04:08:22.955Z,89.71
2018-12-19T04:10:51.193Z,89.94
2018-12-19T04:13:19.313Z,89.44
2018-12-19T04:15:47.550Z,89.69
2018-12-19T04:18:15.802Z,89.92
2018-12-19T04:20:44.336Z,89.50
2018-12-19T04:23:12.505Z,89.90
2018-12-19T04:25:40.725Z,89.70
2018-12-19T04:28:08.960Z,89.61
2018-12-19T04:30:39.629Z,89.54
2018-12-19T04:33:07.830Z,90.05
2018-12-19T04:35:36.324Z,89.85
2018-12-19T04:38:04.658Z,89.74
2018-12-19T04:40:32.936Z,89.63
2018-12-19T04:43:01.153Z,89.66
2018-12-19T04:45:29.390Z,89.66
2018-12-19T04:47:58.607Z,89.63
2018-12-19T04:50:26.824Z,89.38
2018-12-19T04:52:55.720Z,89.87
2018-12-19T04:55:24.117Z,89.55
2018-12-19T04:57:52.333Z,89.66
2018-12-19T05:00:21.071Z,89.68
2018-12-19T05:02:49.224Z,89.54
2018-12-19T05:05:17.370Z,89.39
2018-12-19T05:07:45.946Z,89.34
2018-12-19T05:10:14.340Z,89.57
2018-12-19T05:12:42.476Z,89.44
2018-12-19T05:15:10.753Z,89.36
2018-12-19T05:17:39.012Z,88.99
2018-12-19T05:20:09.311Z,89.36
2018-12-19T05:22:37.629Z,89.12
2018-12-19T05:25:07.523Z,89.35
2018-12-19T05:27:35.732Z,89.24
2018-12-19T05:30:05.755Z,89.09
2018-12-19T05:32:34.060Z,89.20
2018-12-19T05:35:03.006Z,89.30
2018-12-19T05:37:32.251Z,89.21
2018-12-19T05:40:00.932Z,88.85
2018-12-19T05:42:29.529Z,89.06
2018-12-19T05:44:58.260Z,89.30
2018-12-19T05:47:27.034Z,89.43
2018-12-19T05:49:56.307Z,89.20
2018-12-19T05:52:26.633Z,89.00
2018-12-19T05:54:57.415Z,88.75
2018-12-19T05:57:26.378Z,88.57
2018-12-19T05:59:55.696Z,88.56
2018-12-19T06:02:24.464Z,88.86
2018-12-19T06:04:52.973Z,88.14
2018-12-19T06:07:21.787Z,88.72
2018-12-19T06:09:50.315Z,88.60
2018-12-19T06:12:21.562Z,88.35
2018-12-19T06:14:50.432Z,88.26
2018-12-19T06:17:19.655Z,88.11
2018-12-19T06:19:48.256Z,87.90
2018-12-19T06:22:16.786Z,87.82
2018-12-19T06:24:45.964Z,87.83
2018-12-19T06:27:14.482Z,87.36
2018-12-19T06:29:42.712Z,87.10
2018-12-19T06:32:11.274Z,87.44
2018-12-19T06:34:39.558Z,87.06
2018-12-19T06:37:07.740Z,87.30
2018-12-19T06:39:35.879Z,87.14
2018-12-19T06:42:04.124Z,87.20
2018-12-19T06:44:33.377Z,86.79
2018-12-19T06:47:01.528Z,87.10
2018-12-19T06:49:29.671Z,86.65
2018-12-19T06:51:57.903Z,86.72
2018-12-19T06:54:27.083Z,86.51
2018-12-19T06:56:55.375Z,86.39
2018-12-19T06:59:24.018Z,86.35
2018-12-19T07:01:52.190Z,86.56
2018-12-19T07:04:20.362Z,86.45
2018-12-19T07:06:48.639Z,86.44
2018-12-19T07:09:17.020Z,86.41
2018-12-19T07:11:45.192Z,86.16
2018-12-19T07:14:13.318Z,86.19
2018-12-19T07:16:43.580Z,86.36
2018-12-19T07:19:11.616Z,85.91
2018-12-19T07:21:40.028Z,85.68
2018-12-19T07:24:08.236Z,85.54
2018-12-19T07:26:38.604Z,85.53
2018-12-19T07:29:06.922Z,85.90
2018-12-19T07:31:35.199Z,85.96
2018-12-19T07:34:03.950Z,85.30
2018-12-19T07:36:32.709Z,85.90
2018-12-19T07:39:01.429Z,85.26
2018-12-19T07:41:29.744Z,85.60
2018-12-19T07:43:57.947Z,85.34
2018-12-19T07:46:26.179Z,85.14
2018-12-19T07:48:58.189Z,84.45
2018-12-19T07:51:26.376Z,85.33
2018-12-19T07:53:55.776Z,85.31
2018-12-19T07:56:24.505Z,84.94
2018-12-19T07:58:52.657Z,85.39
2018-12-19T08:01:21.440Z,85.21
2018-12-19T08:03:54.451Z,85.65
2018-12-19T08:06:29.190Z,85.33
2018-12-19T08:08:57.458Z,85.32
2018-12-19T08:12:01.927Z,85.08
2018-12-19T08:19:41.382Z,85.36
2018-12-19T08:22:17.395Z,85.33
2018-12-19T08:24:56.166Z,85.25
2018-12-19T08:44:19.830Z,85.26
2018-12-19T09:03:01.133Z,83.91
2018-12-19T09:05:29.500Z,83.91
2018-12-19T09:07:57.753Z,83.98
2018-12-19T09:10:25.888Z,83.55
2018-12-19T09:12:54.143Z,83.57
2018-12-19T09:15:27.896Z,84.63
2018-12-19T09:17:56.168Z,84.25
2018-12-19T09:20:24.606Z,84.78
2018-12-19T09:22:52.884Z,85.15
2018-12-19T09:25:22.241Z,85.67
2018-12-19T09:27:50.488Z,86.31
2018-12-19T09:30:19.422Z,86.36
2018-12-19T09:32:47.812Z,86.66
2018-12-19T09:35:16.031Z,86.27
2018-12-19T09:37:44.251Z,86.95
2018-12-19T09:40:12.402Z,87.18
2018-12-19T09:42:40.568Z,86.94
2018-12-19T09:45:09.664Z,87.61
2018-12-19T09:47:37.872Z,88.02
2018-12-19T09:50:06.326Z,88.10
2018-12-19T09:52:34.603Z,88.09
2018-12-19T09:55:02.840Z,87.96
2018-12-19T09:57:31.258Z,87.85
2018-12-19T09:59:59.639Z,88.87
2018-12-19T10:02:27.918Z,88.80
2018-12-19T10:04:56.089Z,88.66
2018-12-19T10:07:24.308Z,88.54
2018-12-19T10:09:52.486Z,88.57
2018-12-19T10:12:20.660Z,88.61
2018-12-19T10:14:48.813Z,88.54
2018-12-19T10:17:17.581Z,88.88
2018-12-19T10:19:45.764Z,88.52
2018-12-19T10:22:18.805Z,88.61
2018-12-19T10:24:52.313Z,88.25
2018-12-19T10:27:21.507Z,88.68
2018-12-19T10:29:49.869Z,88.68
2018-12-19T10:32:18.106Z,88.23
2018-12-19T10:34:46.277Z,88.87
2018-12-19T10:37:14.498Z,89.34
2018-12-19T10:39:42.833Z,88.94
2018-12-19T10:42:11.116Z,89.13
2018-12-19T10:44:39.405Z,89.85
2018-12-19T10:47:07.714Z,89.67
2018-12-19T10:49:35.886Z,89.81
2018-12-19T10:52:04.133Z,90.02
2018-12-19T10:54:32.317Z,90.36
2018-12-19T10:57:00.490Z,90.64
2018-12-19T10:59:28.669Z,90.33
2018-12-19T11:01:56.864Z,90.44
2018-12-19T11:04:25.156Z,90.69
2018-12-19T11:06:53.414Z,90.86
2018-12-19T11:09:21.583Z,91.27
2018-12-19T11:11:49.760Z,91.71
2018-12-19T11:14:17.951Z,91.36
2018-12-19T11:16:46.191Z,91.88
2018-12-19T11:19:14.389Z,92.03
2018-12-19T11:21:42.560Z,92.42
2018-12-19T11:24:10.930Z,92.97
2018-12-19T11:26:39.223Z,92.36
2018-12-19T11:29:07.393Z,93.00
2018-12-19T11:31:35.662Z,93.10
2018-12-19T11:34:03.947Z,93.33
2018-12-19T11:36:32.226Z,93.59
2018-12-19T11:39:00.366Z,93.39
2018-12-19T11:41:28.711Z,93.48
2018-12-19T11:43:57.013Z,93.66
2018-12-19T11:46:25.274Z,93.76
2018-12-19T11:48:54.108Z,93.82
2018-12-19T11:51:24.032Z,93.83
2018-12-19T11:54:03.387Z,94.33
2018-12-19T11:56:32.443Z,94.48
2018-12-19T11:59:00.977Z,94.64
2018-12-19T12:01:31.352Z,94.66
2018-12-19T12:03:59.508Z,95.09
2018-12-19T12:06:27.790Z,95.16
2018-12-19T12:08:56.012Z,95.38
2018-12-19T12:11:24.153Z,95.53
2018-12-19T12:13:52.310Z,95.47
2018-12-19T12:16:20.553Z,95.78
2018-12-19T12:18:48.704Z,95.67
2018-12-19T12:21:16.877Z,95.70
2018-12-19T12:23:47.433Z,96.07
2018-12-19T12:26:15.290Z,95.80
2018-12-19T12:31:36.209Z,96.13
2018-12-19T12:34:04.430Z,95.87
2018-12-19T12:36:32.805Z,96.37
2018-12-19T12:39:01.125Z,96.45
2018-12-19T12:41:29.760Z,96.17
2018-12-19T12:43:57.926Z,96.10
2018-12-19T12:46:26.714Z,96.37
2018-12-19T12:48:54.983Z,96.12
2018-12-19T12:51:23.329Z,96.32
2018-12-19T12:53:51.491Z,96.78
2018-12-19T12:56:19.754Z,96.46
2018-12-19T12:58:47.997Z,96.26
2018-12-19T13:01:16.574Z,96.25
2018-12-19T13:03:44.776Z,96.68
2018-12-19T13:06:13.468Z,96.38
2018-12-19T13:08:42.225Z,96.61
2018-12-19T13:11:10.673Z,96.45
2018-12-19T13:13:38.840Z,96.52
2018-12-19T13:16:07.634Z,96.79
2018-12-19T13:18:35.861Z,96.47
2018-12-19T13:21:04.103Z,96.72
2018-12-19T13:23:32.266Z,96.93
2018-12-19T13:26:00.550Z,97.12
2018-12-19T13:28:28.715Z,96.73
2018-12-19T13:30:56.915Z,96.90
2018-12-19T13:33:25.276Z,96.93
2018-12-19T13:35:54.812Z,96.69
2018-12-19T13:38:22.982Z,97.10
2018-12-19T13:40:51.135Z,96.70
2018-12-19T13:43:19.362Z,97.17
2018-12-19T13:45:47.687Z,96.56
2018-12-19T13:48:15.840Z,96.66
2018-12-19T13:50:44.015Z,96.65
2018-12-19T13:53:12.211Z,96.77
2018-12-19T13:55:52.319Z,97.01
2018-12-19T13:58:22.801Z,96.79
2018-12-19T14:00:51.045Z,97.07
2018-12-19T14:03:19.209Z,96.80
2018-12-19T14:05:47.798Z,96.63
2018-12-19T14:08:16.534Z,97.11
2018-12-19T14:10:45.378Z,97.02
2018-12-19T14:13:14.318Z,97.08
2018-12-19T14:18:27.435Z,96.88
2018-12-19T14:20:57.888Z,97.22
2018-12-19T14:23:27.613Z,96.74
2018-12-19T14:42:54.317Z,96.58
2018-12-19T15:26:11.269Z,96.82
2018-12-19T15:28:59.101Z,96.67
2018-12-19T15:34:50.241Z,96.83
2018-12-19T15:46:21.234Z,96.36
2018-12-19T15:48:54.337Z,96.36
2018-12-19T15:51:30.612Z,96.51
2018-12-19T15:54:04.129Z,96.53
2018-12-19T15:56:46.869Z,96.51
2018-12-19T15:59:24.591Z,96.65
2018-12-19T16:01:59.295Z,96.48
2018-12-19T16:04:33.660Z,96.36
2018-12-19T16:07:13.514Z,96.19
2018-12-19T16:09:46.675Z,95.88
2018-12-19T16:12:15.048Z,96.46
2018-12-19T16:14:43.396Z,96.27
2018-12-19T16:17:11.689Z,96.02
2018-12-19T16:19:39.817Z,96.06
2018-12-19T16:22:08.209Z,95.93
2018-12-19T16:24:36.494Z,95.82
2018-12-19T16:27:04.759Z,95.81
2018-12-19T16:29:33.059Z,95.55
2018-12-19T16:32:01.286Z,95.75
2018-12-19T16:34:29.918Z,95.63
2018-12-19T16:36:58.851Z,95.43
2018-12-19T16:39:28.122Z,95.90
2018-12-19T16:41:56.832Z,95.55
2018-12-19T16:44:25.739Z,95.65
2018-12-19T16:46:54.175Z,95.48
2018-12-19T16:49:26.116Z,95.09
2018-12-19T16:51:55.856Z,95.13
2018-12-19T16:54:25.527Z,95.08
2018-12-19T16:57:00.497Z,95.38
2018-12-19T17:09:36.255Z,95.39
2018-12-19T17:12:07.256Z,94.42
2018-12-19T17:14:38.483Z,94.55
2018-12-19T17:17:08.917Z,94.73
2018-12-19T17:19:40.190Z,94.99
2018-12-19T17:22:08.381Z,94.81
2018-12-19T17:24:40.884Z,95.03
2018-12-19T17:27:09.248Z,94.88
2018-12-19T17:29:37.472Z,94.66
2018-12-19T17:32:05.873Z,94.86
2018-12-19T17:34:34.019Z,94.86
2018-12-19T17:37:07.199Z,94.48
2018-12-19T17:39:35.486Z,94.76
2018-12-19T17:42:04.746Z,94.67
2018-12-19T17:44:33.502Z,94.81
2018-12-19T17:47:01.653Z,93.27
2018-12-19T17:49:33.298Z,93.61
2018-12-19T17:52:01.544Z,93.80
2018-12-19T17:54:29.697Z,94.35
2018-12-19T17:56:58.416Z,94.43
2018-12-19T17:59:27.107Z,93.80
2018-12-19T18:01:55.287Z,93.96
2018-12-19T18:04:23.730Z,93.96
2018-12-19T18:06:52.209Z,94.13
2018-12-19T18:09:20.382Z,94.13
2018-12-19T18:11:48.653Z,94.22
2018-12-19T18:14:16.852Z,94.00
2018-12-19T18:16:45.250Z,94.05
2018-12-19T18:19:23.114Z,93.87
2018-12-19T18:21:47.898Z,93.99
2018-12-19T18:24:16.216Z,94.24
2018-12-19T18:26:44.415Z,94.00
2018-12-19T18:29:12.694Z,94.09
2018-12-19T18:31:43.850Z,94.01
2018-12-19T19:02:18.459Z,93.10
2018-12-19T19:20:49.602Z,93.54
2018-12-19T19:23:17.840Z,93.42
2018-12-19T19:25:46.167Z,93.37
2018-12-19T19:28:14.393Z,93.33
2018-12-19T19:30:42.610Z,93.50
2018-12-19T19:33:10.968Z,92.98
2018-12-19T19:35:39.442Z,92.94
2018-12-19T19:38:07.759Z,93.02
2018-12-19T19:40:35.930Z,93.20
2018-12-19T19:43:04.237Z,92.78
2018-12-19T19:45:32.953Z,92.76
2018-12-19T19:48:04.475Z,93.01
2018-12-19T19:50:36.881Z,92.90
2018-12-19T19:53:08.682Z,92.04
2018-12-19T19:55:36.857Z,92.69
2018-12-19T19:58:05.165Z,92.82
2018-12-19T20:00:33.542Z,92.43
2018-12-19T20:03:03.885Z,92.54
2018-12-19T20:05:32.078Z,92.35
2018-12-19T20:08:01.563Z,92.38
2018-12-19T20:10:29.858Z,92.12
2018-12-19T20:12:59.478Z,92.23
2018-12-19T20:15:27.944Z,92.10
2018-12-19T20:17:57.342Z,91.81
2018-12-19T20:20:25.773Z,92.15
2018-12-19T20:23:01.165Z,91.92
2018-12-19T20:28:58.107Z,92.62
2018-12-19T20:31:27.216Z,92.72
2018-12-19T20:36:48.449Z,92.18
2018-12-19T20:39:19.172Z,92.75
2018-12-19T20:41:48.174Z,92.90
2018-12-19T20:44:17.392Z,92.08
2018-12-19T20:49:34.376Z,92.12
2018-12-19T20:52:02.508Z,92.34
2018-12-19T20:54:30.692Z,92.37
2018-12-19T20:56:58.857Z,92.07
2018-12-19T20:59:27.279Z,92.11
2018-12-19T21:01:56.258Z,92.10
2018-12-19T21:04:24.699Z,92.01
2018-12-19T21:06:53.127Z,91.41
2018-12-19T21:09:21.649Z,91.59
2018-12-19T21:11:49.989Z,91.34
2018-12-19T21:14:18.385Z,92.04
2018-12-19T21:16:51.864Z,91.59
2018-12-19T21:19:20.125Z,91.45
2018-12-19T21:21:48.543Z,91.59
2018-12-19T21:24:17.148Z,91.97
2018-12-19T21:26:45.468Z,91.95
2018-12-19T21:29:13.685Z,91.79
2018-12-19T21:31:41.893Z,92.15
2018-12-19T21:34:10.197Z,91.86
2018-12-19T21:36:40.316Z,91.61
2018-12-19T21:39:13.872Z,91.72
2018-12-19T21:48:03.210Z,91.61
2018-12-19T21:50:48.683Z,92.01
2018-12-19T21:53:16.908Z,92.01
2018-12-19T21:55:45.179Z,91.83
2018-12-19T21:58:13.341Z,91.70
2018-12-19T22:00:42.121Z,91.61
2018-12-19T22:03:23.336Z,91.82
2018-12-19T22:05:52.135Z,91.54
2018-12-19T22:08:20.507Z,91.90
2018-12-19T22:10:48.822Z,92.02
2018-12-19T22:13:17.168Z,92.37
2018-12-19T22:15:45.388Z,92.18
2018-12-19T22:18:18.875Z,91.94
2018-12-19T22:20:48.130Z,91.69
2018-12-19T22:23:16.358Z,92.25
2018-12-19T22:25:45.939Z,91.24
2018-12-19T22:28:14.885Z,91.82
2018-12-19T22:30:43.617Z,91.84
2018-12-19T22:33:13.222Z,91.81
2018-12-19T22:35:41.759Z,91.51
2018-12-19T22:38:11.102Z,92.29
2018-12-19T22:57:14.661Z,92.26
2018-12-19T23:00:04.919Z,92.03
2018-12-19T23:02:41.567Z,92.45
2018-12-19T23:08:06.486Z,91.97
2018-12-19T23:10:42.381Z,91.57
2018-12-19T23:13:16.272Z,91.54
2018-12-19T23:15:58.803Z,92.47
2018-12-19T23:18:32.718Z,91.98
2018-12-19T23:21:00.996Z,91.88
2018-12-19T23:23:30.083Z,92.38
2018-12-19T23:25:58.632Z,92.10
2018-12-19T23:28:27.244Z,92.32
2018-12-19T23:30:55.935Z,92.02
2018-12-19T23:33:25.499Z,92.16
2018-12-19T23:35:54.299Z,92.27
2018-12-19T23:38:27.177Z,92.12
